Time;durP1;ratioP1;P1;durP2;ratioP2;P2;SDS_P1;SDS_P2;PMS_P1;PMS_P2;Temp;Humidity;BMP_temperature;BMP_pressure;BME280_temperature;BME280_humidity;BME280_pressure;Samples;Min_cycle;Max_cycle;Signal;HPM_P1;HPM_P2
2023/05/24 00:01:41;;;;;;;18.30;4.18;;;8.30;99.90;;;;;;5111811;28;20055;-72
2023/05/24 00:04:07;;;;;;;19.10;4.57;;;8.20;99.90;;;;;;5113187;28;20519;-72
2023/05/24 00:06:36;;;;;;;21.55;4.43;;;8.30;99.90;;;;;;5113359;28;20063;-72
2023/05/24 00:09:02;;;;;;;26.10;4.95;;;8.30;99.90;;;;;;5112729;28;20048;-72
2023/05/24 00:11:28;;;;;;;25.63;4.85;;;8.30;99.90;;;;;;5113385;28;20047;-72
2023/05/24 00:13:54;;;;;;;21.25;4.80;;;8.30;99.90;;;;;;5113858;28;20047;-73
2023/05/24 00:16:20;;;;;;;23.25;4.80;;;8.40;99.90;;;;;;5112553;28;20046;-72
2023/05/24 00:18:45;;;;;;;24.17;5.18;;;8.40;99.90;;;;;;5113314;28;20388;-71
2023/05/24 00:21:12;;;;;;;19.00;5.25;;;8.40;99.90;;;;;;5101769;28;20040;-72
2023/05/24 00:23:38;;;;;;;16.27;4.18;;;8.40;99.90;;;;;;5109580;28;20083;-72
2023/05/24 00:26:04;;;;;;;26.88;5.22;;;8.40;99.90;;;;;;5103972;28;20109;-72
2023/05/24 00:28:30;;;;;;;25.15;4.80;;;8.30;99.90;;;;;;5092541;28;20040;-71
2023/05/24 00:30:57;;;;;;;20.20;4.28;;;8.30;99.90;;;;;;5092050;28;20059;-71
2023/05/24 00:33:23;;;;;;;28.70;5.13;;;8.30;99.90;;;;;;5100768;28;20044;-71
2023/05/24 00:35:55;;;;;;;27.33;5.35;;;8.30;99.90;;;;;;5090996;28;20059;-72
2023/05/24 00:38:24;;;;;;;19.55;4.82;;;8.40;99.90;;;;;;5103592;28;20052;-72
2023/05/24 00:40:50;;;;;;;21.33;4.40;;;8.30;99.90;;;;;;5106473;28;20090;-72
2023/05/24 00:43:16;;;;;;;27.98;5.30;;;8.40;99.90;;;;;;5092199;28;20083;-71
2023/05/24 00:45:42;;;;;;;25.48;5.68;;;8.40;99.90;;;;;;5091168;28;20546;-72
2023/05/24 00:48:09;;;;;;;22.90;5.30;;;8.50;99.90;;;;;;5121992;27;20051;-71
2023/05/24 00:50:36;;;;;;;26.85;5.07;;;8.60;99.90;;;;;;5112735;27;20044;-72
2023/05/24 00:53:02;;;;;;;27.65;4.72;;;8.60;99.90;;;;;;5110606;28;20051;-71
2023/05/24 00:55:29;;;;;;;;;;;8.60;99.90;;;;;;5110996;28;20044;-72
2023/05/24 00:57:56;;;;;;;22.40;5.40;;;8.60;99.90;;;;;;5099185;28;19966;-71
2023/05/24 01:00:22;;;;;;;25.88;6.10;;;8.60;99.90;;;;;;5111520;28;20405;-72
2023/05/24 01:02:49;;;;;;;26.65;5.20;;;8.60;99.90;;;;;;5112208;27;20108;-71
2023/05/24 01:05:16;;;;;;;23.27;4.95;;;8.60;99.90;;;;;;5112129;28;20104;-71
2023/05/24 01:08:28;;;;;;;25.40;4.85;;;8.60;99.90;;;;;;5111099;28;20086;-72
2023/05/24 01:11:05;;;;;;;28.42;5.50;;;8.50;99.90;;;;;;5088958;28;20532;-71
2023/05/24 01:13:44;;;;;;;18.20;5.68;;;8.40;99.90;;;;;;5111008;28;20571;-71
2023/05/24 01:16:16;;;;;;;24.95;4.85;;;8.40;99.90;;;;;;5111715;28;20047;-72
2023/05/24 01:18:48;;;;;;;20.80;5.00;;;8.30;99.90;;;;;;5110085;28;20050;-72
2023/05/24 01:21:47;;;;;;;16.67;4.88;;;8.20;99.90;;;;;;5109537;28;20039;-72
2023/05/24 01:24:18;;;;;;;25.98;4.80;;;8.20;99.90;;;;;;5100786;28;20137;-72
2023/05/24 01:27:07;;;;;;;24.58;5.35;;;8.10;99.90;;;;;;5110465;28;20388;-71
2023/05/24 01:29:34;;;;;;;25.73;5.22;;;8.10;99.90;;;;;;5110620;28;20104;-71
2023/05/24 01:32:01;;;;;;;25.10;5.57;;;8.10;99.90;;;;;;5112323;28;20051;-72
2023/05/24 01:34:27;;;;;;;25.70;4.93;;;8.00;99.90;;;;;;5110263;28;20075;-72
2023/05/24 01:36:53;;;;;;;25.23;5.47;;;8.00;99.90;;;;;;5111617;28;20051;-71
2023/05/24 01:39:20;;;;;;;21.17;5.28;;;8.00;99.90;;;;;;5107784;28;20047;-72
2023/05/24 01:42:07;;;;;;;30.63;5.50;;;7.90;99.90;;;;;;5133886;27;20040;-72
2023/05/24 01:45:02;;;;;;;20.20;5.28;;;7.90;99.90;;;;;;5102702;28;21123;-71
2023/05/24 01:47:43;;;;;;;22.83;5.40;;;7.90;99.90;;;;;;5073493;28;20058;-72
2023/05/24 01:50:24;;;;;;;23.30;5.20;;;7.80;99.90;;;;;;5111850;28;20050;-71
2023/05/24 01:52:52;;;;;;;32.47;5.32;;;7.70;99.90;;;;;;5097931;28;20059;-72
2023/05/24 01:55:19;;;;;;;26.00;5.30;;;7.70;99.90;;;;;;5110761;28;20048;-72
2023/05/24 01:57:49;;;;;;;28.80;5.65;;;7.70;99.90;;;;;;5111019;28;20092;-72
2023/05/24 02:00:17;;;;;;;25.63;5.65;;;7.70;99.90;;;;;;5110963;28;20077;-72
2023/05/24 02:02:43;;;;;;;28.77;5.50;;;7.60;99.90;;;;;;5109841;28;20044;-72
2023/05/24 02:05:10;;;;;;;26.48;5.22;;;7.60;99.90;;;;;;5111780;28;20048;-71
2023/05/24 02:07:37;;;;;;;22.67;4.93;;;7.60;99.90;;;;;;5110769;28;20503;-72
2023/05/24 02:10:03;;;;;;;23.98;6.97;;;7.60;99.90;;;;;;5103040;28;20130;-71
2023/05/24 02:12:30;;;;;;;24.15;5.43;;;7.60;99.90;;;;;;5111278;28;20059;-72
2023/05/24 02:14:56;;;;;;;30.65;5.40;;;7.70;99.90;;;;;;5110922;28;20036;-71
2023/05/24 02:17:24;;;;;;;24.58;5.60;;;7.70;99.90;;;;;;5110287;28;20078;-72
2023/05/24 02:19:50;;;;;;;29.40;5.50;;;7.70;99.90;;;;;;5111759;28;20047;-71
2023/05/24 02:22:15;;;;;;;26.77;5.05;;;7.70;99.90;;;;;;5098838;28;20055;-71
2023/05/24 02:24:42;;;;;;;26.25;5.32;;;7.70;99.90;;;;;;5105977;28;20052;-72
2023/05/24 02:27:08;;;;;;;23.52;5.50;;;7.70;99.90;;;;;;5110449;28;20092;-71
2023/05/24 02:29:34;;;;;;;28.63;6.03;;;7.70;99.90;;;;;;5089651;28;20044;-71
2023/05/24 02:31:59;;;;;;;24.30;5.30;;;7.70;99.90;;;;;;5091051;28;20036;-72
2023/05/24 02:34:25;;;;;;;34.28;5.57;;;7.70;99.90;;;;;;5090143;28;20080;-71
2023/05/24 02:36:53;;;;;;;29.73;5.18;;;7.70;99.90;;;;;;5097972;28;20404;-71
2023/05/24 02:39:19;;;;;;;30.88;5.35;;;7.60;99.90;;;;;;5110921;28;20113;-71
2023/05/24 02:41:44;;;;;;;23.40;5.28;;;7.70;99.90;;;;;;5110063;28;20047;-71
2023/05/24 02:44:10;;;;;;;29.60;5.63;;;7.80;99.90;;;;;;5110382;28;20472;-72
2023/05/24 02:46:36;;;;;;;30.95;7.25;;;7.80;99.90;;;;;;5110659;28;20048;-72
2023/05/24 02:49:02;;;;;;;25.92;5.47;;;7.80;99.90;;;;;;5107572;28;20113;-71
2023/05/24 02:51:28;;;;;;;22.35;5.13;;;7.80;99.90;;;;;;5105503;28;20481;-71
2023/05/24 02:53:53;;;;;;;21.13;5.68;;;7.80;99.90;;;;;;5123895;27;20102;-72
2023/05/24 02:56:20;;;;;;;28.25;5.22;;;7.80;99.90;;;;;;5090889;28;20044;-71
2023/05/24 02:58:46;;;;;;;28.20;5.85;;;7.80;99.90;;;;;;5090426;28;20048;-71
2023/05/24 03:01:12;;;;;;;27.77;5.57;;;7.80;99.90;;;;;;5089958;28;20044;-71
2023/05/24 03:03:38;;;;;;;26.15;5.65;;;7.70;99.90;;;;;;5102053;28;20040;-71
2023/05/24 03:06:05;;;;;;;27.60;5.78;;;7.70;99.90;;;;;;5110730;28;20063;-71
2023/05/24 03:08:32;;;;;;;32.88;7.28;;;7.70;99.90;;;;;;5112857;28;20051;-72
2023/05/24 03:10:57;;;;;;;27.80;5.53;;;7.80;99.90;;;;;;5108723;28;20059;-71
2023/05/24 03:13:23;;;;;;;26.05;5.32;;;7.80;99.90;;;;;;5094190;28;20047;-72
2023/05/24 03:15:49;;;;;;;22.90;5.63;;;7.90;99.90;;;;;;5127099;27;20060;-71
2023/05/24 03:18:14;;;;;;;19.75;5.03;;;8.00;99.90;;;;;;5100265;28;20043;-71
2023/05/24 03:20:40;;;;;;;22.23;5.13;;;8.00;99.90;;;;;;5112834;28;20044;-72
2023/05/24 03:23:06;;;;;;;21.73;5.35;;;8.00;99.90;;;;;;5095371;28;20060;-72
2023/05/24 03:25:32;;;;;;;28.38;5.68;;;8.00;99.90;;;;;;5127257;27;20048;-72
2023/05/24 03:27:57;;;;;;;24.05;5.47;;;8.00;99.90;;;;;;5097074;28;20078;-71
2023/05/24 03:30:23;;;;;;;30.80;6.07;;;7.90;99.90;;;;;;5113535;28;20098;-72
2023/05/24 03:32:49;;;;;;;26.60;5.80;;;7.90;99.90;;;;;;5114177;28;20079;-72
2023/05/24 03:35:14;;;;;;;31.55;5.88;;;7.90;99.90;;;;;;5113928;28;20500;-71
2023/05/24 03:37:40;;;;;;;23.75;5.10;;;7.90;99.90;;;;;;5103084;28;20480;-71
2023/05/24 03:40:06;;;;;;;25.48;5.68;;;7.90;99.90;;;;;;5106749;28;20098;-72
2023/05/24 03:42:32;;;;;;;;;;;8.00;99.90;;;;;;5112123;28;20096;-72
2023/05/24 03:44:57;;;;;;;30.08;5.30;;;8.00;99.90;;;;;;5109330;28;19970;-72
2023/05/24 03:47:23;;;;;;;23.52;5.68;;;8.10;99.90;;;;;;5093309;28;20040;-72
2023/05/24 03:49:50;;;;;;;24.83;5.82;;;8.10;99.90;;;;;;5100350;28;20104;-71
2023/05/24 03:52:15;;;;;;;28.58;5.63;;;8.20;99.90;;;;;;5093560;28;20101;-71
2023/05/24 03:54:41;;;;;;;27.67;5.68;;;8.20;99.90;;;;;;5126546;27;20040;-72
2023/05/24 03:57:07;;;;;;;26.75;5.85;;;8.30;99.90;;;;;;5095450;28;20048;-72
2023/05/24 03:59:32;;;;;;;22.73;5.13;;;8.30;99.90;;;;;;5111708;28;20050;-72
2023/05/24 04:01:58;;;;;;;30.58;6.55;;;8.30;99.90;;;;;;5112924;28;20034;-72
2023/05/24 04:04:24;;;;;;;36.75;6.35;;;8.30;99.90;;;;;;5094732;28;20048;-72
2023/05/24 04:06:49;;;;;;;27.67;5.40;;;8.40;99.90;;;;;;5128424;27;20055;-72
2023/05/24 04:09:15;;;;;;;30.13;5.60;;;8.40;99.90;;;;;;5108000;28;20051;-72
2023/05/24 04:11:41;;;;;;;24.02;5.40;;;8.50;99.90;;;;;;5111665;28;20051;-72
2023/05/24 04:14:06;;;;;;;24.05;5.88;;;8.50;99.90;;;;;;5099208;28;20044;-72
2023/05/24 04:16:38;;;;;;;26.20;6.30;;;8.50;99.90;;;;;;5091569;28;20054;-72
2023/05/24 04:19:04;;;;;;;28.70;5.80;;;8.60;99.90;;;;;;5123739;27;20422;-72
2023/05/24 04:21:32;;;;;;;26.10;5.22;;;8.60;99.90;;;;;;5095229;28;20100;-72
2023/05/24 04:24:00;;;;;;;23.33;5.70;;;8.60;99.90;;;;;;5113912;28;20051;-72
2023/05/24 04:26:26;;;;;;;24.75;5.95;;;8.60;99.90;;;;;;5100343;28;20062;-72
2023/05/24 04:28:52;;;;;;;32.70;5.88;;;8.70;99.90;;;;;;5092840;28;20455;-72
2023/05/24 04:31:19;;;;;;;26.30;5.28;;;8.80;99.90;;;;;;5092405;28;20044;-72
2023/05/24 04:33:47;;;;;;;24.90;5.78;;;8.80;99.90;;;;;;5098856;28;20118;-72
2023/05/24 04:36:12;;;;;;;41.50;5.80;;;8.90;99.90;;;;;;5112318;28;20134;-72
2023/05/24 04:38:39;;;;;;;24.92;6.18;;;8.90;99.90;;;;;;5113049;28;20134;-72
2023/05/24 04:41:05;;;;;;;25.92;5.15;;;8.90;99.90;;;;;;5112332;28;20047;-71
2023/05/24 04:43:32;;;;;;;25.35;5.20;;;9.00;99.90;;;;;;5113214;28;20047;-72
2023/05/24 04:45:58;;;;;;;29.40;5.22;;;9.00;99.90;;;;;;5109875;28;20055;-71
2023/05/24 04:48:24;;;;;;;33.33;5.65;;;9.10;99.90;;;;;;5112722;28;20039;-72
2023/05/24 04:50:51;;;;;;;25.63;5.63;;;9.10;99.90;;;;;;5112456;28;20043;-72
2023/05/24 04:53:18;;;;;;;23.17;5.75;;;9.20;99.90;;;;;;5093179;28;20044;-72
2023/05/24 04:55:43;;;;;;;25.85;5.45;;;9.20;99.90;;;;;;5092352;28;20044;-71
2023/05/24 04:58:09;;;;;;;28.15;5.70;;;9.30;99.90;;;;;;5102118;28;20470;-71
2023/05/24 05:00:34;;;;;;;28.95;5.18;;;9.30;99.90;;;;;;5105811;28;20039;-72
2023/05/24 05:03:00;;;;;;;25.55;5.50;;;9.30;99.90;;;;;;5112660;28;20043;-72
2023/05/24 05:05:26;;;;;;;24.48;4.93;;;9.40;99.90;;;;;;5112565;28;20059;-72
2023/05/24 05:07:52;;;;;;;28.33;5.13;;;9.40;99.90;;;;;;5103875;28;20636;-72
2023/05/24 05:10:18;;;;;;;25.65;4.97;;;9.50;99.90;;;;;;5101754;28;20040;-72
2023/05/24 05:12:43;;;;;;;24.33;5.05;;;9.50;99.90;;;;;;5092112;28;20131;-72
2023/05/24 05:15:10;;;;;;;24.77;4.63;;;9.50;99.90;;;;;;5091732;28;20084;-72
2023/05/24 05:17:35;;;;;;;;;;;9.50;99.90;;;;;;5095151;28;20075;-72
2023/05/24 05:20:03;;;;;;;31.35;5.28;;;9.60;99.90;;;;;;5112887;28;20356;-71
2023/05/24 05:22:29;;;;;;;22.63;5.03;;;9.70;99.90;;;;;;5112215;28;20139;-71
2023/05/24 05:24:55;;;;;;;27.38;4.90;;;9.70;99.90;;;;;;5110823;28;20367;-72
2023/05/24 05:27:21;;;;;;;21.48;4.97;;;9.70;99.90;;;;;;5112004;28;20100;-72
2023/05/24 05:29:46;;;;;;;27.38;4.65;;;9.80;99.90;;;;;;5110216;28;20731;-72
2023/05/24 05:32:12;;;;;;;22.80;4.82;;;9.80;99.90;;;;;;5144812;27;20043;-72
2023/05/24 05:34:38;;;;;;;19.75;5.03;;;9.90;99.90;;;;;;5111907;28;20122;-72
2023/05/24 05:37:04;;;;;;;23.23;5.57;;;10.00;99.90;;;;;;5110834;28;20075;-72
2023/05/24 05:39:30;;;;;;;26.60;5.35;;;10.10;99.90;;;;;;5133546;27;20116;-72
2023/05/24 05:41:56;;;;;;;23.35;4.95;;;10.20;99.90;;;;;;5091646;28;20050;-72
2023/05/24 05:44:22;;;;;;;21.33;4.82;;;10.30;99.90;;;;;;5091003;28;20083;-72
2023/05/24 05:46:48;;;;;;;20.00;4.95;;;10.40;99.90;;;;;;5106371;28;20047;-72
2023/05/24 05:49:14;;;;;;;21.80;4.50;;;10.50;99.90;;;;;;5103267;28;20097;-72
2023/05/24 05:51:40;;;;;;;30.23;4.70;;;10.60;99.90;;;;;;5108292;27;20044;-72
2023/05/24 05:54:12;;;;;;;;;;;10.70;99.90;;;;;;5091233;28;20500;-72
2023/05/24 05:56:44;;;;;;;24.60;5.20;;;10.80;99.90;;;;;;5091600;28;19920;-72
2023/05/24 05:59:10;;;;;;;25.70;4.80;;;10.80;99.90;;;;;;5090166;28;20058;-72
2023/05/24 06:01:36;;;;;;;17.88;4.53;;;10.90;99.90;;;;;;5091062;28;20374;-72
2023/05/24 06:04:02;;;;;;;24.30;4.32;;;11.00;99.90;;;;;;5109923;28;20043;-72
2023/05/24 06:06:27;;;;;;;20.63;5.15;;;11.00;99.90;;;;;;5111184;28;20253;-72
2023/05/24 06:08:53;;;;;;;21.65;4.65;;;11.00;99.90;;;;;;5111388;28;20465;-72
2023/05/24 06:11:19;;;;;;;19.50;3.72;;;11.00;99.90;;;;;;5109156;28;20062;-72
2023/05/24 06:13:45;;;;;;;;;;;11.00;99.90;;;;;;5111216;28;20489;-72
2023/05/24 06:16:11;;;;;;;19.77;4.55;;;11.00;99.90;;;;;;5110735;28;19927;-70
2023/05/24 06:18:37;;;;;;;19.15;4.30;;;11.00;99.90;;;;;;5109772;28;20492;-74
2023/05/24 06:21:03;;;;;;;;;;;11.10;99.90;;;;;;5111260;28;20130;-73
2023/05/24 06:23:28;;;;;;;26.08;5.32;;;11.20;99.90;;;;;;5111474;28;20152;-76
2023/05/24 06:25:54;;;;;;;20.60;4.10;;;11.30;99.90;;;;;;5110985;28;20044;-75
2023/05/24 06:28:21;;;;;;;16.48;3.60;;;11.30;99.90;;;;;;5109481;28;20098;-74
2023/05/24 06:30:47;;;;;;;22.88;3.90;;;11.40;99.90;;;;;;5098764;28;20548;-75
2023/05/24 06:33:12;;;;;;;15.13;3.53;;;11.60;99.90;;;;;;5089676;28;20127;-75
2023/05/24 06:35:38;;;;;;;24.23;4.00;;;11.70;99.90;;;;;;5090803;28;20529;-75
2023/05/24 06:38:04;;;;;;;19.60;4.30;;;11.90;99.90;;;;;;5090476;28;20116;-75
2023/05/24 06:40:30;;;;;;;18.00;4.00;;;12.00;99.90;;;;;;5089642;28;20474;-75
2023/05/24 06:42:57;;;;;;;20.25;5.20;;;12.10;99.90;;;;;;5090257;28;20073;-75
2023/05/24 06:45:23;;;;;;;18.58;3.53;;;12.20;99.90;;;;;;5132053;27;20184;-74
2023/05/24 06:47:49;;;;;;;;;;;12.20;99.90;;;;;;5110823;28;20051;-74
2023/05/24 06:50:15;;;;;;;18.15;4.10;;;12.30;99.90;;;;;;5111317;28;19926;-75
2023/05/24 06:52:41;;;;;;;14.55;3.75;;;12.40;99.90;;;;;;5108809;28;20070;-75
2023/05/24 06:55:07;;;;;;;19.20;3.97;;;12.40;99.90;;;;;;5110590;28;20040;-74
2023/05/24 06:57:33;;;;;;;;;;;12.40;99.90;;;;;;5110995;28;20062;-75
2023/05/24 06:59:58;;;;;;;17.88;4.05;;;12.40;99.90;;;;;;5109747;28;19923;-75
2023/05/24 07:02:26;;;;;;;15.57;3.92;;;12.40;99.90;;;;;;5110559;28;20050;-75
2023/05/24 07:04:52;;;;;;;17.75;3.55;;;12.50;99.90;;;;;;5110673;28;20083;-74
2023/05/24 07:07:19;;;;;;;29.65;4.75;;;12.50;99.90;;;;;;5134516;27;20068;-75
2023/05/24 07:09:46;;;;;;;19.95;4.00;;;12.50;99.90;;;;;;5109553;28;20058;-73
2023/05/24 07:12:12;;;;;;;19.67;3.92;;;12.60;99.90;;;;;;5109675;28;20113;-74
2023/05/24 07:14:37;;;;;;;16.02;4.07;;;12.70;99.90;;;;;;5109751;28;20109;-71
2023/05/24 07:17:03;;;;;;;16.67;3.63;;;12.80;99.90;;;;;;5110365;28;20044;-71
2023/05/24 07:19:29;;;;;;;18.08;4.13;;;12.90;99.90;;;;;;5110619;28;20054;-72
2023/05/24 07:21:58;;;;;;;19.63;4.15;;;13.00;99.90;;;;;;5099296;28;20521;-72
2023/05/24 07:24:23;;;;;;;33.13;4.30;;;13.00;99.90;;;;;;5109627;28;20042;-71
2023/05/24 07:26:50;;;;;;;15.43;3.60;;;13.00;99.90;;;;;;5103410;28;20047;-73
2023/05/24 07:29:16;;;;;;;18.45;4.18;;;13.10;99.90;;;;;;5090479;28;20059;-73
2023/05/24 07:31:42;;;;;;;15.20;3.85;;;13.00;99.90;;;;;;5108809;28;20044;-72
2023/05/24 07:34:07;;;;;;;13.40;3.75;;;13.00;99.90;;;;;;5107508;28;20039;-75
2023/05/24 07:36:33;;;;;;;17.55;4.07;;;13.00;99.90;;;;;;5095694;28;20040;-75
2023/05/24 07:39:04;;;;;;;15.85;3.40;;;13.00;99.90;;;;;;5101769;28;20045;-74
2023/05/24 07:41:32;;;;;;;15.40;3.50;;;13.00;99.90;;;;;;5099026;28;20493;-74
2023/05/24 07:43:57;;;;;;;16.45;3.63;;;13.10;99.90;;;;;;5095233;28;20119;-74
2023/05/24 07:46:23;;;;;;;14.05;3.50;;;13.10;99.90;;;;;;5097761;28;20126;-74
2023/05/24 07:48:49;;;;;;;19.15;3.85;;;13.20;99.90;;;;;;5088898;28;20044;-74
2023/05/24 07:51:15;;;;;;;14.02;3.25;;;13.20;99.90;;;;;;5111621;28;20043;-74
2023/05/24 07:53:40;;;;;;;14.15;3.33;;;13.30;99.90;;;;;;5126231;27;20101;-74
2023/05/24 07:56:06;;;;;;;18.88;4.40;;;13.30;99.90;;;;;;5093060;28;20071;-74
2023/05/24 07:58:32;;;;;;;17.08;4.40;;;13.30;99.90;;;;;;5093020;28;20104;-74
2023/05/24 08:00:58;;;;;;;19.70;3.97;;;13.20;99.90;;;;;;5098361;28;20560;-74
2023/05/24 08:03:24;;;;;;;17.23;3.33;;;13.20;99.90;;;;;;5096925;28;20074;-80
2023/05/24 08:05:50;;;;;;;15.77;3.85;;;13.20;99.90;;;;;;5099090;28;20245;-74
2023/05/24 08:08:16;;;;;;;;;;;13.30;99.90;;;;;;5100231;28;20133;-74
2023/05/24 08:10:42;;;;;;;17.60;4.57;;;13.40;99.90;;;;;;5109188;28;19989;-73
2023/05/24 08:13:07;;;;;;;16.60;3.45;;;13.60;99.90;;;;;;5110914;28;20047;-74
2023/05/24 08:15:33;;;;;;;12.82;3.60;;;13.70;99.90;;;;;;5126397;27;20134;-74
2023/05/24 08:17:59;;;;;;;15.02;3.25;;;13.80;99.90;;;;;;5092031;28;20055;-74
2023/05/24 08:20:25;;;;;;;14.57;3.30;;;13.90;99.90;;;;;;5125670;27;20076;-74
2023/05/24 08:22:51;;;;;;;11.30;3.28;;;14.00;99.90;;;;;;5106305;28;20059;-75
2023/05/24 08:25:16;;;;;;;14.57;3.30;;;14.20;99.90;;;;;;5098735;28;20094;-75
2023/05/24 08:27:42;;;;;;;20.15;4.47;;;14.30;99.90;;;;;;5105254;28;20044;-74
2023/05/24 08:30:09;;;;;;;10.60;3.13;;;14.40;99.90;;;;;;5108640;28;20039;-75
2023/05/24 08:32:35;;;;;;;18.17;3.58;;;14.40;99.90;;;;;;5097964;28;20489;-74
2023/05/24 08:35:01;;;;;;;11.60;3.00;;;14.50;99.90;;;;;;5100775;28;20058;-76
2023/05/24 08:37:27;;;;;;;10.73;3.35;;;14.60;99.90;;;;;;5135991;27;20052;-76
2023/05/24 08:39:53;;;;;;;13.32;3.10;;;14.70;99.90;;;;;;5111882;28;20044;-75
2023/05/24 08:42:20;;;;;;;14.88;3.92;;;14.70;99.90;;;;;;5112267;28;20047;-75
2023/05/24 08:44:57;;;;;;;15.98;3.38;;;14.70;99.90;;;;;;5104603;27;20055;-76
2023/05/24 08:47:24;;;;;;;17.55;3.67;;;14.60;99.90;;;;;;5093629;28;20044;-74
2023/05/24 08:49:51;;;;;;;11.98;2.60;;;14.50;99.90;;;;;;5112436;28;20059;-73
2023/05/24 08:52:18;;;;;;;16.13;3.30;;;14.40;99.90;;;;;;5099232;28;20705;-74
2023/05/24 08:54:45;;;;;;;13.15;3.20;;;14.30;99.90;;;;;;5098148;28;20523;-73
2023/05/24 08:57:12;;;;;;;13.45;3.45;;;14.20;99.90;;;;;;5112419;27;20051;-73
2023/05/24 08:59:40;;;;;;;13.20;3.22;;;14.10;99.90;;;;;;5145314;27;20055;-74
2023/05/24 09:02:10;;;;;;;16.55;3.90;;;14.10;99.90;;;;;;5111140;28;20400;-74
2023/05/24 09:04:38;;;;;;;15.77;3.40;;;14.20;99.90;;;;;;5111809;28;20043;-73
2023/05/24 09:07:06;;;;;;;14.93;3.05;;;14.20;99.90;;;;;;5109024;28;20100;-74
2023/05/24 09:09:33;;;;;;;14.35;2.97;;;14.30;99.90;;;;;;5101519;28;20043;-74
2023/05/24 09:12:04;;;;;;;18.10;3.53;;;14.40;99.90;;;;;;5112174;28;20546;-74
2023/05/24 09:14:30;;;;;;;14.98;3.67;;;14.60;99.90;;;;;;5110961;28;20100;-74
2023/05/24 09:16:56;;;;;;;19.23;3.38;;;14.70;99.90;;;;;;5112608;28;20044;-74
2023/05/24 09:19:22;;;;;;;;;;;14.70;99.90;;;;;;5112171;28;20123;-73
2023/05/24 09:21:48;;;;;;;14.30;3.55;;;14.60;99.90;;;;;;5110905;28;19974;-73
2023/05/24 09:24:15;;;;;;;19.02;3.88;;;14.50;99.90;;;;;;5104832;28;20050;-73
2023/05/24 09:26:41;;;;;;;16.73;3.80;;;14.50;99.90;;;;;;5109306;28;20507;-74
2023/05/24 09:29:08;;;;;;;12.95;3.50;;;14.50;99.90;;;;;;5110893;28;20055;-74
2023/05/24 09:31:35;;;;;;;12.90;3.13;;;14.60;99.90;;;;;;5106345;28;20433;-74
2023/05/24 09:34:02;;;;;;;15.25;3.53;;;14.70;99.90;;;;;;5101832;28;20088;-75
2023/05/24 09:36:31;;;;;;;15.60;3.47;;;14.80;99.90;;;;;;5111464;28;20051;-73
2023/05/24 09:39:10;;;;;;;18.75;3.40;;;14.90;99.90;;;;;;5112187;28;20056;-75
2023/05/24 09:41:36;;;;;;;16.30;3.17;;;14.90;99.90;;;;;;5111218;28;20043;-74
2023/05/24 09:44:03;;;;;;;13.55;3.30;;;14.90;99.90;;;;;;5109801;28;20044;-74
2023/05/24 09:46:34;;;;;;;14.40;3.17;;;14.90;99.90;;;;;;5111758;28;20044;-74
2023/05/24 09:49:02;;;;;;;15.40;3.20;;;14.90;99.90;;;;;;5067510;28;20071;-76
2023/05/24 09:51:29;;;;;;;12.57;2.88;;;14.90;99.90;;;;;;5108902;28;20036;-76
2023/05/24 09:54:01;;;;;;;17.23;3.42;;;15.00;99.90;;;;;;5110222;28;20043;-76
2023/05/24 09:56:27;;;;;;;11.48;3.05;;;15.00;99.90;;;;;;5109709;28;20051;-76
2023/05/24 09:58:53;;;;;;;13.50;2.92;;;15.10;99.90;;;;;;5090764;28;20092;-76
2023/05/24 10:01:23;;;;;;;17.00;3.63;;;15.20;99.90;;;;;;5123281;27;20051;-76
2023/05/24 10:03:56;;;;;;;9.73;3.20;;;15.30;99.90;;;;;;5091346;28;20044;-76
2023/05/24 10:06:24;;;;;;;15.25;3.25;;;15.40;99.90;;;;;;5090486;28;20562;-76
2023/05/24 10:08:51;;;;;;;13.40;3.00;;;15.50;99.90;;;;;;5091694;28;20140;-76
2023/05/24 10:11:18;;;;;;;13.82;3.38;;;15.50;99.90;;;;;;5123728;27;20048;-76
2023/05/24 10:13:43;;;;;;;19.27;3.67;;;15.60;99.90;;;;;;5102077;28;20050;-76
2023/05/24 10:16:09;;;;;;;10.18;3.13;;;15.70;99.90;;;;;;5108924;28;20043;-75
2023/05/24 10:18:35;;;;;;;;;;;15.90;99.90;;;;;;5111557;28;20092;-76
2023/05/24 10:21:06;;;;;;;10.55;2.85;;;16.10;99.90;;;;;;5108948;28;19928;-76
2023/05/24 10:23:34;;;;;;;14.85;3.05;;;16.30;99.90;;;;;;5128810;27;20048;-76
2023/05/24 10:26:11;;;;;;;11.23;3.10;;;16.40;99.90;;;;;;5110134;28;20043;-72
2023/05/24 10:28:46;;;;;;;7.68;2.60;;;16.50;99.90;;;;;;5109475;28;20496;-73
2023/05/24 10:31:16;;;;;;;10.07;2.50;;;16.40;99.60;;;;;;5131554;27;20052;-72
2023/05/24 10:33:45;;;;;;;11.43;2.70;;;16.30;99.90;;;;;;5137877;27;20477;-73
2023/05/24 10:36:14;;;;;;;12.32;3.15;;;16.30;99.90;;;;;;5108446;28;20054;-72
2023/05/24 10:38:41;;;;;;;13.63;3.20;;;16.40;99.90;;;;;;5109391;28;20052;-72
2023/05/24 10:41:07;;;;;;;13.65;3.03;;;16.60;99.90;;;;;;5108857;28;20079;-72
2023/05/24 10:43:37;;;;;;;10.95;3.00;;;16.70;99.90;;;;;;5110983;28;20039;-72
2023/05/24 10:46:04;;;;;;;11.73;2.72;;;16.70;99.90;;;;;;5108249;28;20046;-71
2023/05/24 10:48:37;;;;;;;13.70;3.25;;;16.60;99.70;;;;;;5109796;28;20043;-71
2023/05/24 10:51:32;;;;;;;10.70;3.15;;;16.60;98.60;;;;;;5110644;28;20050;-72
2023/05/24 10:54:18;;;;;;;11.30;2.70;;;16.50;98.10;;;;;;5109397;28;20078;-72
2023/05/24 10:56:49;;;;;;;10.32;2.78;;;16.40;99.20;;;;;;5106824;28;20123;-71
2023/05/24 10:59:23;;;;;;;11.82;2.90;;;16.40;99.60;;;;;;5104772;28;20044;-72
2023/05/24 11:01:59;;;;;;;12.40;3.10;;;16.40;99.20;;;;;;5098904;28;20412;-71
2023/05/24 11:04:27;;;;;;;12.02;2.60;;;16.30;98.30;;;;;;5109562;28;20079;-71
2023/05/24 11:07:02;;;;;;;8.15;2.55;;;16.30;99.10;;;;;;5109746;28;20500;-71
2023/05/24 11:09:29;;;;;;;12.77;2.92;;;16.30;98.70;;;;;;5109182;28;20148;-71
2023/05/24 11:12:08;;;;;;;11.15;2.85;;;16.40;98.90;;;;;;5109364;28;20385;-71
2023/05/24 11:14:38;;;;;;;12.30;2.78;;;16.50;98.60;;;;;;5095934;28;20160;-71
2023/05/24 11:17:05;;;;;;;11.85;3.10;;;16.50;98.90;;;;;;5108366;28;20043;-71
2023/05/24 11:19:45;;;;;;;9.05;2.58;;;16.50;99.20;;;;;;5090700;28;20055;-71
2023/05/24 11:22:13;;;;;;;10.38;2.70;;;16.60;99.60;;;;;;5122110;27;20083;-75
2023/05/24 11:24:40;;;;;;;11.80;2.67;;;16.70;99.10;;;;;;5091549;28;20086;-72
2023/05/24 11:27:06;;;;;;;17.25;3.13;;;16.90;98.60;;;;;;5094604;28;20099;-72
2023/05/24 11:29:38;;;;;;;10.43;2.72;;;17.00;98.20;;;;;;5106029;28;20090;-72
2023/05/24 11:32:04;;;;;;;14.13;3.20;;;17.10;97.60;;;;;;5114285;28;20051;-71
2023/05/24 11:34:30;;;;;;;;;;;17.20;97.20;;;;;;5111692;28;20063;-71
2023/05/24 11:36:58;;;;;;;9.80;2.65;;;17.00;95.40;;;;;;5098630;28;20309;-72
2023/05/24 11:39:27;;;;;;;12.55;2.88;;;16.80;97.60;;;;;;5113966;28;20038;-71
2023/05/24 11:41:53;;;;;;;16.23;3.40;;;16.60;97.90;;;;;;5097639;28;20444;-71
2023/05/24 11:44:20;;;;;;;15.68;3.22;;;16.50;98.40;;;;;;5092621;28;20082;-71
2023/05/24 11:46:46;;;;;;;12.40;3.17;;;16.50;98.80;;;;;;5093706;28;20051;-71
2023/05/24 11:49:15;;;;;;;;;;;16.40;99.00;;;;;;5101062;28;20048;-74
2023/05/24 11:51:41;;;;;;;13.60;3.05;;;16.40;98.30;;;;;;5107944;28;19923;-73
2023/05/24 11:54:07;;;;;;;10.30;2.90;;;16.30;98.90;;;;;;5105400;28;20047;-72
2023/05/24 11:56:33;;;;;;;13.77;3.25;;;16.30;98.60;;;;;;5112544;28;20874;-71
2023/05/24 11:59:08;;;;;;;;;;;16.30;99.00;;;;;;5108928;28;20039;-73
2023/05/24 12:01:34;;;;;;;11.93;3.22;;;16.40;98.20;;;;;;5094682;28;19919;-72
2023/05/24 12:03:59;;;;;;;13.05;2.85;;;16.50;98.60;;;;;;5109373;28;20040;-72
2023/05/24 12:06:32;;;;;;;;;;;16.60;98.30;;;;;;5093370;28;20047;-72
2023/05/24 12:08:58;;;;;;;11.25;2.70;;;16.60;96.80;;;;;;5092943;28;19924;-73
2023/05/24 12:11:25;;;;;;;10.85;2.60;;;16.70;98.10;;;;;;5091628;28;20649;-73
2023/05/24 12:13:50;;;;;;;12.65;2.97;;;16.80;98.70;;;;;;5129164;27;20070;-73
2023/05/24 12:16:16;;;;;;;12.77;2.83;;;16.90;98.80;;;;;;5091201;28;20044;-73
2023/05/24 12:18:42;;;;;;;10.20;2.85;;;17.00;98.90;;;;;;5101872;28;20055;-73
2023/05/24 12:21:10;;;;;;;10.68;3.08;;;17.10;98.70;;;;;;5108500;27;20071;-72
2023/05/24 12:23:36;;;;;;;8.10;2.53;;;17.30;99.00;;;;;;5097915;28;20455;-73
2023/05/24 12:26:02;;;;;;;;;;;17.80;99.00;;;;;;5113026;28;20069;-73
2023/05/24 12:28:35;;;;;;;10.18;3.10;;;18.30;95.20;;;;;;5112101;28;19945;-72
2023/05/24 12:31:02;;;;;;;13.75;2.88;;;18.70;96.60;;;;;;5112406;28;20209;-73
2023/05/24 12:33:28;;;;;;;10.48;2.83;;;19.30;96.30;;;;;;5111277;28;20058;-73
2023/05/24 12:35:53;;;;;;;;;;;20.10;95.50;;;;;;5109216;28;20047;-75
2023/05/24 12:38:24;;;;;;;11.05;2.75;;;21.10;90.70;;;;;;5105296;27;19938;-73
2023/05/24 12:40:53;;;;;;;10.95;2.83;;;22.10;93.40;;;;;;5098589;28;20046;-74
2023/05/24 12:43:19;;;;;;;11.23;2.58;;;23.10;88.90;;;;;;5110565;28;20395;-75
2023/05/24 12:45:45;;;;;;;9.38;2.55;;;24.10;81.50;;;;;;5100750;28;20040;-74
2023/05/24 12:48:12;;;;;;;6.38;2.40;;;24.70;74.00;;;;;;5108664;28;20055;-74